sensor_id;sensor_type;location;lat;lon;timestamp;P1;durP1;ratioP1;P2;durP2;ratioP2
3000;SDS011;1510;51.072;6.678;2023-08-17T00:00:25;499.20;;;476.23;;
3000;SDS011;1510;51.072;6.678;2023-08-17T00:02:52;466.30;;;445.33;;
3000;SDS011;1510;51.072;6.678;2023-08-17T00:05:19;445.70;;;425.23;;
3000;SDS011;1510;51.072;6.678;2023-08-17T00:07:45;429.00;;;409.53;;
3000;SDS011;1510;51.072;6.678;2023-08-17T00:10:12;463.40;;;442.13;;
3000;SDS011;1510;51.072;6.678;2023-08-17T00:12:41;440.40;;;420.50;;
3000;SDS011;1510;51.072;6.678;2023-08-17T00:15:08;436.37;;;416.87;;
3000;SDS011;1510;51.072;6.678;2023-08-17T00:17:35;472.00;;;450.13;;
3000;SDS011;1510;51.072;6.678;2023-08-17T00:20:02;500.23;;;475.73;;
3000;SDS011;1510;51.072;6.678;2023-08-17T00:22:31;446.73;;;425.67;;
3000;SDS011;1510;51.072;6.678;2023-08-17T00:24:58;407.57;;;388.37;;
3000;SDS011;1510;51.072;6.678;2023-08-17T00:27:25;448.07;;;425.47;;
3000;SDS011;1510;51.072;6.678;2023-08-17T00:29:53;379.97;;;361.77;;
3000;SDS011;1510;51.072;6.678;2023-08-17T00:32:20;303.93;;;289.77;;
3000;SDS011;1510;51.072;6.678;2023-08-17T00:34:47;308.03;;;293.60;;
3000;SDS011;1510;51.072;6.678;2023-08-17T00:37:13;277.57;;;265.30;;
3000;SDS011;1510;51.072;6.678;2023-08-17T00:39:40;282.47;;;269.67;;
3000;SDS011;1510;51.072;6.678;2023-08-17T00:42:07;305.83;;;292.20;;
3000;SDS011;1510;51.072;6.678;2023-08-17T00:44:35;295.77;;;282.20;;
3000;SDS011;1510;51.072;6.678;2023-08-17T00:47:03;288.70;;;275.90;;
3000;SDS011;1510;51.072;6.678;2023-08-17T00:49:30;289.73;;;276.70;;
3000;SDS011;1510;51.072;6.678;2023-08-17T00:51:58;275.23;;;262.63;;
3000;SDS011;1510;51.072;6.678;2023-08-17T00:54:26;296.73;;;282.77;;
3000;SDS011;1510;51.072;6.678;2023-08-17T00:56:55;287.43;;;274.23;;
3000;SDS011;1510;51.072;6.678;2023-08-17T00:59:23;293.17;;;279.77;;
3000;SDS011;1510;51.072;6.678;2023-08-17T01:01:50;300.73;;;286.83;;
3000;SDS011;1510;51.072;6.678;2023-08-17T01:04:18;274.60;;;262.43;;
3000;SDS011;1510;51.072;6.678;2023-08-17T01:06:45;282.57;;;269.97;;
3000;SDS011;1510;51.072;6.678;2023-08-17T01:09:12;299.00;;;285.20;;
3000;SDS011;1510;51.072;6.678;2023-08-17T01:11:41;303.43;;;289.63;;
3000;SDS011;1510;51.072;6.678;2023-08-17T01:14:19;311.10;;;296.80;;
3000;SDS011;1510;51.072;6.678;2023-08-17T01:16:55;322.97;;;308.30;;
3000;SDS011;1510;51.072;6.678;2023-08-17T01:19:28;306.53;;;292.83;;
3000;SDS011;1510;51.072;6.678;2023-08-17T01:21:57;342.77;;;326.47;;
3000;SDS011;1510;51.072;6.678;2023-08-17T01:24:28;306.73;;;292.83;;
3000;SDS011;1510;51.072;6.678;2023-08-17T01:26:54;280.40;;;268.00;;
3000;SDS011;1510;51.072;6.678;2023-08-17T01:29:21;286.43;;;273.43;;
3000;SDS011;1510;51.072;6.678;2023-08-17T01:31:50;296.07;;;282.60;;
3000;SDS011;1510;51.072;6.678;2023-08-17T01:34:21;265.43;;;253.83;;
3000;SDS011;1510;51.072;6.678;2023-08-17T01:36:50;273.73;;;261.30;;
3000;SDS011;1510;51.072;6.678;2023-08-17T01:39:20;267.80;;;255.93;;
3000;SDS011;1510;51.072;6.678;2023-08-17T01:41:50;251.50;;;240.40;;
3000;SDS011;1510;51.072;6.678;2023-08-17T01:44:18;248.80;;;238.20;;
3000;SDS011;1510;51.072;6.678;2023-08-17T01:46:46;239.17;;;229.20;;
3000;SDS011;1510;51.072;6.678;2023-08-17T01:49:13;229.47;;;220.07;;
3000;SDS011;1510;51.072;6.678;2023-08-17T01:51:40;225.43;;;216.13;;
3000;SDS011;1510;51.072;6.678;2023-08-17T01:54:07;236.50;;;226.73;;
3000;SDS011;1510;51.072;6.678;2023-08-17T01:56:34;251.27;;;240.40;;
3000;SDS011;1510;51.072;6.678;2023-08-17T01:59:02;252.17;;;241.07;;
3000;SDS011;1510;51.072;6.678;2023-08-17T02:01:29;244.27;;;233.87;;
3000;SDS011;1510;51.072;6.678;2023-08-17T02:03:56;257.93;;;246.87;;
3000;SDS011;1510;51.072;6.678;2023-08-17T02:06:25;239.60;;;229.60;;
3000;SDS011;1510;51.072;6.678;2023-08-17T02:08:51;230.40;;;220.80;;
3000;SDS011;1510;51.072;6.678;2023-08-17T02:11:18;243.00;;;232.57;;
3000;SDS011;1510;51.072;6.678;2023-08-17T02:13:45;236.23;;;226.13;;
3000;SDS011;1510;51.072;6.678;2023-08-17T02:16:13;225.80;;;215.70;;
3000;SDS011;1510;51.072;6.678;2023-08-17T02:18:40;244.90;;;234.30;;
3000;SDS011;1510;51.072;6.678;2023-08-17T02:21:07;226.20;;;216.87;;
3000;SDS011;1510;51.072;6.678;2023-08-17T02:23:34;238.87;;;228.67;;
3000;SDS011;1510;51.072;6.678;2023-08-17T02:26:01;235.33;;;225.47;;
3000;SDS011;1510;51.072;6.678;2023-08-17T02:28:27;228.63;;;218.67;;
3000;SDS011;1510;51.072;6.678;2023-08-17T02:30:54;232.47;;;222.73;;
3000;SDS011;1510;51.072;6.678;2023-08-17T02:33:23;239.57;;;229.73;;
3000;SDS011;1510;51.072;6.678;2023-08-17T02:35:50;242.30;;;232.37;;
3000;SDS011;1510;51.072;6.678;2023-08-17T02:38:17;252.93;;;242.33;;
3000;SDS011;1510;51.072;6.678;2023-08-17T02:40:44;261.10;;;250.00;;
3000;SDS011;1510;51.072;6.678;2023-08-17T02:43:14;274.70;;;262.77;;
3000;SDS011;1510;51.072;6.678;2023-08-17T02:45:41;262.17;;;251.37;;
3000;SDS011;1510;51.072;6.678;2023-08-17T02:48:08;269.43;;;257.83;;
3000;SDS011;1510;51.072;6.678;2023-08-17T02:50:36;272.73;;;260.73;;
3000;SDS011;1510;51.072;6.678;2023-08-17T02:53:03;262.20;;;250.93;;
3000;SDS011;1510;51.072;6.678;2023-08-17T02:55:30;300.27;;;286.83;;
3000;SDS011;1510;51.072;6.678;2023-08-17T02:57:56;299.20;;;286.07;;
3000;SDS011;1510;51.072;6.678;2023-08-17T03:00:23;319.70;;;305.23;;
3000;SDS011;1510;51.072;6.678;2023-08-17T03:02:50;353.20;;;336.60;;
3000;SDS011;1510;51.072;6.678;2023-08-17T03:05:18;371.53;;;353.73;;
3000;SDS011;1510;51.072;6.678;2023-08-17T03:07:46;371.47;;;354.00;;
3000;SDS011;1510;51.072;6.678;2023-08-17T03:10:13;379.57;;;361.70;;
3000;SDS011;1510;51.072;6.678;2023-08-17T03:12:40;364.33;;;347.00;;
3000;SDS011;1510;51.072;6.678;2023-08-17T03:15:07;380.20;;;362.20;;
3000;SDS011;1510;51.072;6.678;2023-08-17T03:17:34;382.93;;;365.17;;
3000;SDS011;1510;51.072;6.678;2023-08-17T03:20:00;380.63;;;363.03;;
3000;SDS011;1510;51.072;6.678;2023-08-17T03:22:27;411.47;;;391.80;;
3000;SDS011;1510;51.072;6.678;2023-08-17T03:24:56;414.67;;;394.70;;
3000;SDS011;1510;51.072;6.678;2023-08-17T03:27:22;426.23;;;405.17;;
3000;SDS011;1510;51.072;6.678;2023-08-17T03:29:50;416.20;;;396.13;;
3000;SDS011;1510;51.072;6.678;2023-08-17T03:32:17;433.60;;;412.30;;
3000;SDS011;1510;51.072;6.678;2023-08-17T03:34:43;436.53;;;414.83;;
3000;SDS011;1510;51.072;6.678;2023-08-17T03:37:11;438.30;;;416.77;;
3000;SDS011;1510;51.072;6.678;2023-08-17T03:39:38;422.50;;;402.50;;
3000;SDS011;1510;51.072;6.678;2023-08-17T03:42:06;393.70;;;375.50;;
3000;SDS011;1510;51.072;6.678;2023-08-17T03:44:33;408.23;;;388.77;;
3000;SDS011;1510;51.072;6.678;2023-08-17T03:46:59;441.57;;;419.27;;
3000;SDS011;1510;51.072;6.678;2023-08-17T03:49:26;426.63;;;406.33;;
3000;SDS011;1510;51.072;6.678;2023-08-17T03:51:53;480.07;;;455.30;;
3000;SDS011;1510;51.072;6.678;2023-08-17T03:54:20;447.47;;;424.97;;
3000;SDS011;1510;51.072;6.678;2023-08-17T03:56:47;416.63;;;396.67;;
3000;SDS011;1510;51.072;6.678;2023-08-17T03:59:15;410.53;;;390.40;;
3000;SDS011;1510;51.072;6.678;2023-08-17T04:01:41;399.17;;;379.57;;
3000;SDS011;1510;51.072;6.678;2023-08-17T04:04:09;342.77;;;326.77;;
3000;SDS011;1510;51.072;6.678;2023-08-17T04:06:35;307.47;;;293.10;;
3000;SDS011;1510;51.072;6.678;2023-08-17T04:09:04;309.57;;;294.93;;
3000;SDS011;1510;51.072;6.678;2023-08-17T04:11:31;283.53;;;270.67;;
3000;SDS011;1510;51.072;6.678;2023-08-17T04:14:00;286.93;;;272.87;;
3000;SDS011;1510;51.072;6.678;2023-08-17T04:16:29;311.70;;;296.53;;
3000;SDS011;1510;51.072;6.678;2023-08-17T04:18:56;297.83;;;283.37;;
3000;SDS011;1510;51.072;6.678;2023-08-17T04:21:22;290.43;;;276.27;;
3000;SDS011;1510;51.072;6.678;2023-08-17T04:23:49;321.37;;;305.77;;
3000;SDS011;1510;51.072;6.678;2023-08-17T04:26:16;325.73;;;309.03;;
3000;SDS011;1510;51.072;6.678;2023-08-17T04:28:43;328.23;;;311.97;;
3000;SDS011;1510;51.072;6.678;2023-08-17T04:31:10;307.13;;;292.33;;
3000;SDS011;1510;51.072;6.678;2023-08-17T04:33:39;340.13;;;323.13;;
3000;SDS011;1510;51.072;6.678;2023-08-17T04:36:06;306.73;;;290.93;;
3000;SDS011;1510;51.072;6.678;2023-08-17T04:38:33;332.63;;;316.10;;
3000;SDS011;1510;51.072;6.678;2023-08-17T04:41:00;345.00;;;327.47;;
3000;SDS011;1510;51.072;6.678;2023-08-17T04:43:27;323.13;;;307.13;;
3000;SDS011;1510;51.072;6.678;2023-08-17T04:45:53;337.40;;;319.60;;
3000;SDS011;1510;51.072;6.678;2023-08-17T04:48:20;326.80;;;309.93;;
3000;SDS011;1510;51.072;6.678;2023-08-17T04:50:49;323.13;;;306.83;;
3000;SDS011;1510;51.072;6.678;2023-08-17T04:53:17;343.10;;;326.20;;
3000;SDS011;1510;51.072;6.678;2023-08-17T04:55:44;328.37;;;311.23;;
3000;SDS011;1510;51.072;6.678;2023-08-17T04:58:10;349.83;;;331.93;;
3000;SDS011;1510;51.072;6.678;2023-08-17T05:00:37;322.77;;;306.57;;
3000;SDS011;1510;51.072;6.678;2023-08-17T05:03:04;327.90;;;311.10;;
3000;SDS011;1510;51.072;6.678;2023-08-17T05:05:31;324.63;;;308.17;;
3000;SDS011;1510;51.072;6.678;2023-08-17T05:07:59;321.33;;;304.33;;
3000;SDS011;1510;51.072;6.678;2023-08-17T05:10:26;312.63;;;295.93;;
3000;SDS011;1510;51.072;6.678;2023-08-17T05:12:53;318.43;;;301.73;;
3000;SDS011;1510;51.072;6.678;2023-08-17T05:15:21;334.97;;;317.13;;
3000;SDS011;1510;51.072;6.678;2023-08-17T05:17:47;310.07;;;293.63;;
3000;SDS011;1510;51.072;6.678;2023-08-17T05:20:14;321.57;;;304.80;;
3000;SDS011;1510;51.072;6.678;2023-08-17T05:22:41;302.43;;;286.83;;
3000;SDS011;1510;51.072;6.678;2023-08-17T05:25:09;319.17;;;302.87;;
3000;SDS011;1510;51.072;6.678;2023-08-17T05:27:36;325.53;;;308.33;;
3000;SDS011;1510;51.072;6.678;2023-08-17T05:30:03;315.23;;;298.47;;
3000;SDS011;1510;51.072;6.678;2023-08-17T05:32:31;294.33;;;279.40;;
3000;SDS011;1510;51.072;6.678;2023-08-17T05:34:58;306.67;;;290.77;;
3000;SDS011;1510;51.072;6.678;2023-08-17T05:37:25;304.63;;;288.23;;
3000;SDS011;1510;51.072;6.678;2023-08-17T05:39:52;307.97;;;291.97;;
3000;SDS011;1510;51.072;6.678;2023-08-17T05:42:20;302.93;;;287.07;;
3000;SDS011;1510;51.072;6.678;2023-08-17T05:44:47;313.50;;;297.70;;
3000;SDS011;1510;51.072;6.678;2023-08-17T05:47:14;288.67;;;273.90;;
3000;SDS011;1510;51.072;6.678;2023-08-17T05:49:43;292.87;;;278.07;;
3000;SDS011;1510;51.072;6.678;2023-08-17T05:52:10;281.73;;;267.57;;
3000;SDS011;1510;51.072;6.678;2023-08-17T05:54:37;269.43;;;256.43;;
3000;SDS011;1510;51.072;6.678;2023-08-17T05:57:03;267.13;;;254.33;;
3000;SDS011;1510;51.072;6.678;2023-08-17T05:59:32;261.83;;;249.17;;
3000;SDS011;1510;51.072;6.678;2023-08-17T06:01:58;241.27;;;229.50;;
3000;SDS011;1510;51.072;6.678;2023-08-17T06:04:25;244.40;;;232.67;;
3000;SDS011;1510;51.072;6.678;2023-08-17T06:06:52;218.67;;;208.30;;
3000;SDS011;1510;51.072;6.678;2023-08-17T06:09:19;213.17;;;203.37;;
3000;SDS011;1510;51.072;6.678;2023-08-17T06:11:45;180.37;;;172.30;;
3000;SDS011;1510;51.072;6.678;2023-08-17T06:14:12;142.30;;;135.63;;
3000;SDS011;1510;51.072;6.678;2023-08-17T06:16:40;122.37;;;116.50;;
3000;SDS011;1510;51.072;6.678;2023-08-17T06:19:07;114.23;;;108.60;;
3000;SDS011;1510;51.072;6.678;2023-08-17T06:21:34;99.47;;;94.43;;
3000;SDS011;1510;51.072;6.678;2023-08-17T06:24:01;82.47;;;78.47;;
3000;SDS011;1510;51.072;6.678;2023-08-17T06:26:28;71.43;;;67.00;;
3000;SDS011;1510;51.072;6.678;2023-08-17T06:28:55;62.10;;;58.40;;
3000;SDS011;1510;51.072;6.678;2023-08-17T06:31:22;76.97;;;72.68;;
3000;SDS011;1510;51.072;6.678;2023-08-17T06:33:53;39.23;;;36.27;;
3000;SDS011;1510;51.072;6.678;2023-08-17T06:36:20;32.17;;;29.20;;
3000;SDS011;1510;51.072;6.678;2023-08-17T06:38:47;37.63;;;34.53;;
3000;SDS011;1510;51.072;6.678;2023-08-17T06:41:14;32.23;;;29.20;;
3000;SDS011;1510;51.072;6.678;2023-08-17T06:43:41;32.87;;;30.07;;
3000;SDS011;1510;51.072;6.678;2023-08-17T06:46:08;32.27;;;29.63;;
3000;SDS011;1510;51.072;6.678;2023-08-17T06:48:35;25.83;;;23.33;;
3000;SDS011;1510;51.072;6.678;2023-08-17T06:51:03;25.10;;;22.50;;
3000;SDS011;1510;51.072;6.678;2023-08-17T06:53:30;26.27;;;23.90;;
3000;SDS011;1510;51.072;6.678;2023-08-17T06:55:57;25.37;;;22.17;;
3000;SDS011;1510;51.072;6.678;2023-08-17T06:58:24;24.40;;;20.83;;
3000;SDS011;1510;51.072;6.678;2023-08-17T07:00:50;23.03;;;20.20;;
3000;SDS011;1510;51.072;6.678;2023-08-17T07:03:17;22.77;;;20.80;;
3000;SDS011;1510;51.072;6.678;2023-08-17T07:05:45;24.13;;;21.03;;
3000;SDS011;1510;51.072;6.678;2023-08-17T07:08:14;23.00;;;20.60;;
3000;SDS011;1510;51.072;6.678;2023-08-17T07:10:41;24.83;;;22.63;;
3000;SDS011;1510;51.072;6.678;2023-08-17T07:13:08;22.07;;;20.00;;
3000;SDS011;1510;51.072;6.678;2023-08-17T07:15:35;22.87;;;20.80;;
3000;SDS011;1510;51.072;6.678;2023-08-17T07:18:02;27.40;;;24.87;;
3000;SDS011;1510;51.072;6.678;2023-08-17T07:20:30;24.73;;;22.47;;
3000;SDS011;1510;51.072;6.678;2023-08-17T07:22:56;28.90;;;26.30;;
3000;SDS011;1510;51.072;6.678;2023-08-17T07:25:24;26.43;;;24.17;;
3000;SDS011;1510;51.072;6.678;2023-08-17T07:27:51;20.73;;;18.67;;
3000;SDS011;1510;51.072;6.678;2023-08-17T07:30:18;22.20;;;18.50;;
3000;SDS011;1510;51.072;6.678;2023-08-17T07:32:45;20.30;;;18.40;;
3000;SDS011;1510;51.072;6.678;2023-08-17T07:35:12;21.07;;;18.00;;
3000;SDS011;1510;51.072;6.678;2023-08-17T07:37:38;19.93;;;17.90;;
3000;SDS011;1510;51.072;6.678;2023-08-17T07:40:06;18.70;;;16.27;;
3000;SDS011;1510;51.072;6.678;2023-08-17T07:42:35;21.93;;;18.57;;
3000;SDS011;1510;51.072;6.678;2023-08-17T07:45:02;20.53;;;18.47;;
3000;SDS011;1510;51.072;6.678;2023-08-17T07:47:31;22.73;;;20.37;;
3000;SDS011;1510;51.072;6.678;2023-08-17T07:49:58;28.05;;;25.55;;
3000;SDS011;1510;51.072;6.678;2023-08-17T07:52:24;22.73;;;20.63;;
3000;SDS011;1510;51.072;6.678;2023-08-17T07:54:52;21.63;;;16.60;;
3000;SDS011;1510;51.072;6.678;2023-08-17T07:57:19;22.67;;;18.13;;
3000;SDS011;1510;51.072;6.678;2023-08-17T07:59:47;23.53;;;17.20;;
3000;SDS011;1510;51.072;6.678;2023-08-17T08:02:14;27.23;;;18.57;;
3000;SDS011;1510;51.072;6.678;2023-08-17T08:04:41;20.53;;;15.30;;
3000;SDS011;1510;51.072;6.678;2023-08-17T08:07:08;23.97;;;16.80;;
3000;SDS011;1510;51.072;6.678;2023-08-17T08:09:35;21.20;;;17.30;;
3000;SDS011;1510;51.072;6.678;2023-08-17T08:12:02;19.50;;;17.40;;
3000;SDS011;1510;51.072;6.678;2023-08-17T08:14:29;26.13;;;18.07;;
3000;SDS011;1510;51.072;6.678;2023-08-17T08:16:58;19.57;;;17.47;;
3000;SDS011;1510;51.072;6.678;2023-08-17T08:19:24;23.23;;;18.87;;
3000;SDS011;1510;51.072;6.678;2023-08-17T08:21:51;23.90;;;16.93;;
3000;SDS011;1510;51.072;6.678;2023-08-17T08:24:18;20.80;;;18.17;;
3000;SDS011;1510;51.072;6.678;2023-08-17T08:26:45;22.13;;;18.30;;
3000;SDS011;1510;51.072;6.678;2023-08-17T08:29:11;23.90;;;19.40;;
3000;SDS011;1510;51.072;6.678;2023-08-17T08:31:38;18.30;;;16.33;;
3000;SDS011;1510;51.072;6.678;2023-08-17T08:34:06;22.17;;;16.43;;
3000;SDS011;1510;51.072;6.678;2023-08-17T08:36:33;22.57;;;17.10;;
3000;SDS011;1510;51.072;6.678;2023-08-17T08:39:00;20.97;;;17.03;;
3000;SDS011;1510;51.072;6.678;2023-08-17T08:41:27;26.73;;;16.37;;
3000;SDS011;1510;51.072;6.678;2023-08-17T08:43:56;22.43;;;13.97;;
3000;SDS011;1510;51.072;6.678;2023-08-17T08:46:23;19.63;;;16.20;;
3000;SDS011;1510;51.072;6.678;2023-08-17T08:48:54;17.73;;;15.40;;
3000;SDS011;1510;51.072;6.678;2023-08-17T08:51:23;21.90;;;15.83;;
3000;SDS011;1510;51.072;6.678;2023-08-17T08:53:54;22.63;;;17.00;;
3000;SDS011;1510;51.072;6.678;2023-08-17T08:56:27;24.33;;;15.20;;
3000;SDS011;1510;51.072;6.678;2023-08-17T08:58:57;22.40;;;17.07;;
3000;SDS011;1510;51.072;6.678;2023-08-17T09:01:27;20.20;;;16.63;;
3000;SDS011;1510;51.072;6.678;2023-08-17T09:03:57;16.80;;;14.60;;
3000;SDS011;1510;51.072;6.678;2023-08-17T09:06:30;24.40;;;16.30;;
3000;SDS011;1510;51.072;6.678;2023-08-17T09:08:58;20.97;;;15.17;;
3000;SDS011;1510;51.072;6.678;2023-08-17T09:11:26;19.30;;;14.43;;
3000;SDS011;1510;51.072;6.678;2023-08-17T09:13:53;20.60;;;14.90;;
3000;SDS011;1510;51.072;6.678;2023-08-17T09:16:20;18.60;;;14.43;;
3000;SDS011;1510;51.072;6.678;2023-08-17T09:18:47;22.17;;;13.97;;
3000;SDS011;1510;51.072;6.678;2023-08-17T09:21:20;19.47;;;13.77;;
3000;SDS011;1510;51.072;6.678;2023-08-17T09:23:51;19.17;;;14.90;;
3000;SDS011;1510;51.072;6.678;2023-08-17T09:26:19;19.43;;;15.00;;
3000;SDS011;1510;51.072;6.678;2023-08-17T09:28:47;23.23;;;17.17;;
3000;SDS011;1510;51.072;6.678;2023-08-17T09:31:14;23.90;;;16.10;;
3000;SDS011;1510;51.072;6.678;2023-08-17T09:33:40;17.50;;;14.77;;
3000;SDS011;1510;51.072;6.678;2023-08-17T09:36:09;23.40;;;18.60;;
3000;SDS011;1510;51.072;6.678;2023-08-17T09:38:37;20.20;;;17.30;;
3000;SDS011;1510;51.072;6.678;2023-08-17T09:41:05;28.20;;;17.93;;
3000;SDS011;1510;51.072;6.678;2023-08-17T09:43:32;27.37;;;18.73;;
3000;SDS011;1510;51.072;6.678;2023-08-17T09:46:00;27.23;;;16.60;;
3000;SDS011;1510;51.072;6.678;2023-08-17T09:48:28;22.87;;;19.07;;
3000;SDS011;1510;51.072;6.678;2023-08-17T09:50:56;23.50;;;18.53;;
3000;SDS011;1510;51.072;6.678;2023-08-17T09:53:24;22.60;;;16.20;;
3000;SDS011;1510;51.072;6.678;2023-08-17T09:55:51;21.10;;;15.60;;
3000;SDS011;1510;51.072;6.678;2023-08-17T09:58:22;24.00;;;18.97;;
3000;SDS011;1510;51.072;6.678;2023-08-17T10:00:49;21.83;;;15.90;;
3000;SDS011;1510;51.072;6.678;2023-08-17T10:03:17;28.80;;;19.30;;
3000;SDS011;1510;51.072;6.678;2023-08-17T10:05:45;27.23;;;17.63;;
3000;SDS011;1510;51.072;6.678;2023-08-17T10:08:18;21.13;;;16.63;;
3000;SDS011;1510;51.072;6.678;2023-08-17T10:10:46;22.53;;;14.83;;
3000;SDS011;1510;51.072;6.678;2023-08-17T10:13:16;20.60;;;15.80;;
3000;SDS011;1510;51.072;6.678;2023-08-17T10:15:55;26.87;;;17.67;;
3000;SDS011;1510;51.072;6.678;2023-08-17T10:18:29;22.93;;;15.70;;
3000;SDS011;1510;51.072;6.678;2023-08-17T10:21:02;23.20;;;15.03;;
3000;SDS011;1510;51.072;6.678;2023-08-17T10:23:36;20.97;;;16.27;;
3000;SDS011;1510;51.072;6.678;2023-08-17T10:26:04;25.80;;;14.90;;
3000;SDS011;1510;51.072;6.678;2023-08-17T10:28:33;20.20;;;12.97;;
3000;SDS011;1510;51.072;6.678;2023-08-17T10:31:02;21.47;;;15.07;;
3000;SDS011;1510;51.072;6.678;2023-08-17T10:33:29;27.13;;;18.43;;
3000;SDS011;1510;51.072;6.678;2023-08-17T10:35:56;21.70;;;17.30;;
3000;SDS011;1510;51.072;6.678;2023-08-17T10:38:23;20.90;;;16.37;;
3000;SDS011;1510;51.072;6.678;2023-08-17T10:46:22;24.53;;;16.37;;
3000;SDS011;1510;51.072;6.678;2023-08-17T10:49:00;25.27;;;18.77;;
3000;SDS011;1510;51.072;6.678;2023-08-17T10:51:29;25.40;;;16.60;;
3000;SDS011;1510;51.072;6.678;2023-08-17T10:53:56;24.07;;;17.40;;
3000;SDS011;1510;51.072;6.678;2023-08-17T10:56:26;29.60;;;17.30;;
3000;SDS011;1510;51.072;6.678;2023-08-17T10:58:54;27.10;;;16.83;;
3000;SDS011;1510;51.072;6.678;2023-08-17T11:01:32;20.07;;;15.47;;
3000;SDS011;1510;51.072;6.678;2023-08-17T11:04:10;22.53;;;17.53;;
3000;SDS011;1510;51.072;6.678;2023-08-17T11:06:37;22.17;;;14.33;;
3000;SDS011;1510;51.072;6.678;2023-08-17T11:09:06;22.70;;;16.83;;
3000;SDS011;1510;51.072;6.678;2023-08-17T11:11:33;25.03;;;16.13;;
3000;SDS011;1510;51.072;6.678;2023-08-17T11:14:00;20.90;;;15.97;;
3000;SDS011;1510;51.072;6.678;2023-08-17T11:16:27;19.93;;;15.90;;
3000;SDS011;1510;51.072;6.678;2023-08-17T11:18:55;24.37;;;17.23;;
3000;SDS011;1510;51.072;6.678;2023-08-17T11:21:24;21.97;;;15.17;;
3000;SDS011;1510;51.072;6.678;2023-08-17T11:23:51;20.87;;;13.80;;
3000;SDS011;1510;51.072;6.678;2023-08-17T11:26:22;21.60;;;15.57;;
3000;SDS011;1510;51.072;6.678;2023-08-17T11:28:50;24.37;;;16.20;;
3000;SDS011;1510;51.072;6.678;2023-08-17T11:31:17;22.40;;;14.90;;
3000;SDS011;1510;51.072;6.678;2023-08-17T11:33:44;27.93;;;16.83;;
3000;SDS011;1510;51.072;6.678;2023-08-17T11:36:13;25.57;;;17.67;;
3000;SDS011;1510;51.072;6.678;2023-08-17T11:38:40;18.03;;;13.53;;
3000;SDS011;1510;51.072;6.678;2023-08-17T11:41:11;20.40;;;15.40;;
3000;SDS011;1510;51.072;6.678;2023-08-17T11:43:42;28.97;;;15.17;;
3000;SDS011;1510;51.072;6.678;2023-08-17T11:46:09;19.63;;;13.07;;
3000;SDS011;1510;51.072;6.678;2023-08-17T11:48:36;22.33;;;15.47;;
3000;SDS011;1510;51.072;6.678;2023-08-17T11:51:03;19.50;;;14.03;;
3000;SDS011;1510;51.072;6.678;2023-08-17T11:53:34;20.60;;;13.73;;
3000;SDS011;1510;51.072;6.678;2023-08-17T11:56:01;19.40;;;14.30;;
3000;SDS011;1510;51.072;6.678;2023-08-17T11:58:40;21.40;;;15.10;;
3000;SDS011;1510;51.072;6.678;2023-08-17T12:01:09;23.10;;;14.77;;
3000;SDS011;1510;51.072;6.678;2023-08-17T12:03:37;23.97;;;16.40;;
3000;SDS011;1510;51.072;6.678;2023-08-17T12:06:05;20.83;;;14.93;;
3000;SDS011;1510;51.072;6.678;2023-08-17T12:08:33;20.40;;;13.87;;
3000;SDS011;1510;51.072;6.678;2023-08-17T12:11:00;21.17;;;15.80;;
3000;SDS011;1510;51.072;6.678;2023-08-17T12:13:32;18.30;;;14.60;;
3000;SDS011;1510;51.072;6.678;2023-08-17T12:15:59;23.23;;;14.70;;
3000;SDS011;1510;51.072;6.678;2023-08-17T12:18:26;20.90;;;13.67;;
3000;SDS011;1510;51.072;6.678;2023-08-17T12:20:54;21.80;;;16.60;;
3000;SDS011;1510;51.072;6.678;2023-08-17T12:23:21;22.70;;;15.93;;
3000;SDS011;1510;51.072;6.678;2023-08-17T12:25:53;18.37;;;14.17;;
3000;SDS011;1510;51.072;6.678;2023-08-17T12:28:20;22.00;;;14.83;;
3000;SDS011;1510;51.072;6.678;2023-08-17T12:30:47;23.93;;;17.83;;
3000;SDS011;1510;51.072;6.678;2023-08-17T12:33:24;21.37;;;16.20;;
3000;SDS011;1510;51.072;6.678;2023-08-17T12:35:51;26.20;;;15.83;;
3000;SDS011;1510;51.072;6.678;2023-08-17T12:38:17;20.67;;;16.67;;
3000;SDS011;1510;51.072;6.678;2023-08-17T12:40:44;22.47;;;16.63;;
3000;SDS011;1510;51.072;6.678;2023-08-17T12:43:12;20.73;;;14.77;;
3000;SDS011;1510;51.072;6.678;2023-08-17T12:45:39;23.33;;;16.17;;
3000;SDS011;1510;51.072;6.678;2023-08-17T12:48:06;23.27;;;16.70;;
3000;SDS011;1510;51.072;6.678;2023-08-17T12:50:33;22.67;;;18.20;;
3000;SDS011;1510;51.072;6.678;2023-08-17T12:52:59;22.70;;;15.67;;
3000;SDS011;1510;51.072;6.678;2023-08-17T12:55:26;27.07;;;18.53;;
3000;SDS011;1510;51.072;6.678;2023-08-17T12:57:53;21.00;;;16.60;;
3000;SDS011;1510;51.072;6.678;2023-08-17T13:00:21;22.43;;;16.63;;
3000;SDS011;1510;51.072;6.678;2023-08-17T13:02:48;25.20;;;18.63;;
3000;SDS011;1510;51.072;6.678;2023-08-17T13:05:16;22.70;;;15.33;;
3000;SDS011;1510;51.072;6.678;2023-08-17T13:07:43;25.00;;;20.00;;
3000;SDS011;1510;51.072;6.678;2023-08-17T13:10:10;24.77;;;17.60;;
3000;SDS011;1510;51.072;6.678;2023-08-17T13:12:36;22.50;;;17.27;;
3000;SDS011;1510;51.072;6.678;2023-08-17T13:15:04;23.50;;;16.67;;
3000;SDS011;1510;51.072;6.678;2023-08-17T13:17:33;22.23;;;15.77;;
3000;SDS011;1510;51.072;6.678;2023-08-17T13:20:00;21.00;;;15.47;;
3000;SDS011;1510;51.072;6.678;2023-08-17T13:22:28;24.20;;;17.23;;
3000;SDS011;1510;51.072;6.678;2023-08-17T13:24:55;21.60;;;17.17;;
3000;SDS011;1510;51.072;6.678;2023-08-17T13:27:22;19.47;;;16.57;;
3000;SDS011;1510;51.072;6.678;2023-08-17T13:29:49;21.80;;;15.90;;
3000;SDS011;1510;51.072;6.678;2023-08-17T13:32:16;18.90;;;15.87;;
3000;SDS011;1510;51.072;6.678;2023-08-17T13:34:44;21.93;;;16.47;;
3000;SDS011;1510;51.072;6.678;2023-08-17T13:37:11;19.27;;;14.10;;
3000;SDS011;1510;51.072;6.678;2023-08-17T13:39:38;19.23;;;13.83;;
3000;SDS011;1510;51.072;6.678;2023-08-17T13:42:04;25.17;;;16.07;;
3000;SDS011;1510;51.072;6.678;2023-08-17T13:44:32;21.90;;;15.27;;
3000;SDS011;1510;51.072;6.678;2023-08-17T13:46:58;20.57;;;16.27;;
3000;SDS011;1510;51.072;6.678;2023-08-17T13:49:27;24.13;;;17.30;;
3000;SDS011;1510;51.072;6.678;2023-08-17T13:51:55;18.80;;;15.00;;
3000;SDS011;1510;51.072;6.678;2023-08-17T13:54:22;18.30;;;14.77;;
3000;SDS011;1510;51.072;6.678;2023-08-17T13:56:49;19.87;;;14.97;;
3000;SDS011;1510;51.072;6.678;2023-08-17T13:59:16;21.77;;;14.70;;
3000;SDS011;1510;51.072;6.678;2023-08-17T14:01:43;19.13;;;14.95;;
3000;SDS011;1510;51.072;6.678;2023-08-17T14:04:10;21.00;;;16.00;;
3000;SDS011;1510;51.072;6.678;2023-08-17T14:06:37;19.27;;;15.30;;
3000;SDS011;1510;51.072;6.678;2023-08-17T14:09:06;19.17;;;14.87;;
3000;SDS011;1510;51.072;6.678;2023-08-17T14:11:33;21.05;;;15.30;;
3000;SDS011;1510;51.072;6.678;2023-08-17T14:14:00;17.97;;;13.27;;
3000;SDS011;1510;51.072;6.678;2023-08-17T14:16:27;19.00;;;12.80;;
3000;SDS011;1510;51.072;6.678;2023-08-17T14:18:53;19.07;;;14.03;;
3000;SDS011;1510;51.072;6.678;2023-08-17T14:21:20;20.57;;;15.50;;
3000;SDS011;1510;51.072;6.678;2023-08-17T14:23:50;19.63;;;14.27;;
3000;SDS011;1510;51.072;6.678;2023-08-17T14:26:18;26.10;;;16.03;;
3000;SDS011;1510;51.072;6.678;2023-08-17T14:28:48;16.57;;;11.90;;
3000;SDS011;1510;51.072;6.678;2023-08-17T14:31:15;16.30;;;13.43;;
3000;SDS011;1510;51.072;6.678;2023-08-17T14:33:43;24.10;;;14.77;;
3000;SDS011;1510;51.072;6.678;2023-08-17T14:36:12;18.33;;;13.80;;
3000;SDS011;1510;51.072;6.678;2023-08-17T14:38:39;18.30;;;13.77;;
3000;SDS011;1510;51.072;6.678;2023-08-17T14:41:06;17.50;;;12.87;;
3000;SDS011;1510;51.072;6.678;2023-08-17T14:43:34;22.20;;;13.53;;